createdAt,value
2017-07-12T00:01:58.537Z,6.07
2017-07-12T00:04:26.061Z,6.73
2017-07-12T00:06:54.365Z,5.90
2017-07-12T00:09:21.905Z,5.73
2017-07-12T00:11:49.422Z,6.30
2017-07-12T00:14:16.948Z,6.07
2017-07-12T00:16:44.501Z,5.97
2017-07-12T00:19:12.060Z,6.93
2017-07-12T00:21:39.597Z,6.50
2017-07-12T00:24:07.185Z,6.07
2017-07-12T00:26:34.738Z,6.17
2017-07-12T00:29:02.290Z,5.97
2017-07-12T00:31:29.803Z,5.50
2017-07-12T00:33:57.422Z,6.37
2017-07-12T00:36:24.946Z,5.80
2017-07-12T00:38:52.466Z,6.10
2017-07-12T00:41:20.094Z,5.50
2017-07-12T00:43:47.641Z,5.60
2017-07-12T00:46:15.196Z,5.80
2017-07-12T00:48:42.714Z,5.73
2017-07-12T00:51:10.332Z,5.17
2017-07-12T00:53:37.881Z,5.40
2017-07-12T00:56:05.443Z,5.80
2017-07-12T00:58:32.998Z,6.10
2017-07-12T01:01:00.581Z,5.93
2017-07-12T01:03:28.179Z,6.17
2017-07-12T01:05:55.658Z,6.33
2017-07-12T01:08:23.239Z,4.70
2017-07-12T01:10:50.897Z,5.40
2017-07-12T01:13:18.411Z,5.17
2017-07-12T01:15:46.730Z,5.23
2017-07-12T01:18:14.297Z,4.87
2017-07-12T01:20:41.822Z,6.27
2017-07-12T01:23:09.404Z,5.60
2017-07-12T01:25:37.067Z,5.90
2017-07-12T01:28:04.629Z,5.77
2017-07-12T01:30:32.149Z,5.47
2017-07-12T01:33:00.438Z,5.30
2017-07-12T01:35:27.976Z,5.10
2017-07-12T01:37:56.293Z,5.40
2017-07-12T01:40:23.854Z,5.93
2017-07-12T01:42:51.413Z,5.20
2017-07-12T01:45:18.984Z,5.07
2017-07-12T01:47:46.631Z,4.83
2017-07-12T01:50:14.190Z,5.07
2017-07-12T01:52:41.708Z,5.03
2017-07-12T01:55:10.005Z,5.87
2017-07-12T01:57:37.686Z,6.33
2017-07-12T02:00:05.245Z,5.70
2017-07-12T02:02:32.808Z,4.83
2017-07-12T02:05:00.364Z,5.60
2017-07-12T02:07:27.923Z,6.53
2017-07-12T02:09:55.478Z,5.77
2017-07-12T02:12:23.241Z,6.37
2017-07-12T02:14:50.801Z,5.80
2017-07-12T02:17:18.327Z,6.50
2017-07-12T02:19:46.637Z,5.50
2017-07-12T02:22:14.193Z,4.87
2017-07-12T02:24:41.758Z,5.80
2017-07-12T02:27:09.314Z,5.80
2017-07-12T02:29:36.869Z,4.73
2017-07-12T02:32:04.428Z,4.80
2017-07-12T02:34:31.945Z,5.73
2017-07-12T02:37:00.261Z,5.53
2017-07-12T02:39:28.056Z,5.63
2017-07-12T02:41:55.579Z,5.03
2017-07-12T02:44:23.137Z,5.30
2017-07-12T02:46:50.703Z,4.70
2017-07-12T02:49:18.265Z,5.70
2017-07-12T02:51:45.827Z,4.87
2017-07-12T02:54:13.378Z,5.00
2017-07-12T02:56:40.939Z,4.93
2017-07-12T02:59:08.489Z,4.70
2017-07-12T03:01:36.055Z,5.63
2017-07-12T03:04:03.625Z,5.70
2017-07-12T03:06:31.170Z,5.00
2017-07-12T03:08:58.735Z,5.30
2017-07-12T03:11:26.305Z,5.30
2017-07-12T03:13:53.821Z,6.60
2017-07-12T03:16:21.406Z,5.20
2017-07-12T03:18:48.963Z,5.40
2017-07-12T03:21:16.482Z,5.03
2017-07-12T03:23:44.764Z,5.60
2017-07-12T03:26:13.041Z,7.03
2017-07-12T03:28:40.631Z,5.97
2017-07-12T03:31:08.189Z,5.47
2017-07-12T03:33:35.705Z,5.80
2017-07-12T03:36:04.038Z,5.57
2017-07-12T03:38:31.685Z,5.40
2017-07-12T03:40:59.249Z,5.57
2017-07-12T03:43:26.769Z,5.37
2017-07-12T03:45:55.070Z,5.73
2017-07-12T03:48:22.642Z,5.83
2017-07-12T03:50:50.197Z,6.03
2017-07-12T03:53:17.758Z,5.77
2017-07-12T03:55:45.277Z,5.70
2017-07-12T03:58:13.591Z,5.97
2017-07-12T04:00:41.250Z,6.07
2017-07-12T04:03:08.810Z,6.83
2017-07-12T04:05:36.369Z,5.53
2017-07-12T04:08:03.913Z,5.23
2017-07-12T04:10:31.489Z,5.77
2017-07-12T04:12:59.049Z,6.07
2017-07-12T04:15:26.591Z,5.60
2017-07-12T04:17:54.109Z,5.63
2017-07-12T04:20:22.389Z,7.00
2017-07-12T04:22:50.813Z,5.70
2017-07-12T04:25:18.324Z,5.33
2017-07-12T04:27:46.658Z,5.40
2017-07-12T04:30:14.197Z,5.37
2017-07-12T04:32:41.765Z,6.80
2017-07-12T04:35:09.290Z,6.07
2017-07-12T04:37:37.602Z,6.00
2017-07-12T04:40:05.166Z,6.70
2017-07-12T04:42:32.689Z,6.53
2017-07-12T04:45:00.246Z,5.87
2017-07-12T04:47:28.550Z,5.67
2017-07-12T04:49:56.082Z,5.50
2017-07-12T04:52:23.678Z,5.30
2017-07-12T04:54:51.223Z,5.73
2017-07-12T04:57:18.785Z,6.20
2017-07-12T04:59:46.349Z,6.77
2017-07-12T05:02:13.934Z,5.63
2017-07-12T05:04:41.583Z,8.50
2017-07-12T05:07:34.923Z,6.07
2017-07-12T05:10:30.591Z,6.73
2017-07-12T05:12:58.976Z,5.90
2017-07-12T05:15:27.294Z,5.37
2017-07-12T05:17:54.935Z,5.90
2017-07-12T05:20:22.594Z,5.33
2017-07-12T05:22:50.203Z,5.37
2017-07-12T05:25:17.838Z,6.13
2017-07-12T05:27:45.397Z,5.90
2017-07-12T05:30:12.918Z,6.10
2017-07-12T05:32:41.231Z,24.50
2017-07-12T05:35:08.784Z,5.50
2017-07-12T05:37:36.329Z,4.90
2017-07-12T05:40:03.920Z,5.90
2017-07-12T05:42:31.480Z,5.80
2017-07-12T05:44:59.034Z,8.30
2017-07-12T05:47:26.590Z,5.80
2017-07-12T05:49:54.138Z,6.63
2017-07-12T05:52:21.657Z,5.40
2017-07-12T05:54:49.988Z,7.00
2017-07-12T05:57:17.514Z,5.80
2017-07-12T05:59:45.098Z,7.20
2017-07-12T06:02:12.655Z,7.70
2017-07-12T06:04:40.173Z,6.73
2017-07-12T06:07:08.494Z,6.20
2017-07-12T06:09:36.013Z,5.13
2017-07-12T06:12:04.375Z,6.50
2017-07-12T06:14:31.991Z,5.90
2017-07-12T06:16:59.545Z,5.90
2017-07-12T06:19:27.105Z,6.13
2017-07-12T06:21:54.638Z,6.60
2017-07-12T06:24:22.161Z,5.47
2017-07-12T06:26:49.710Z,4.90
2017-07-12T06:29:17.228Z,5.57
2017-07-12T06:31:44.750Z,5.23
2017-07-12T06:34:13.049Z,5.43
2017-07-12T06:36:40.636Z,5.40
2017-07-12T06:39:08.290Z,5.33
2017-07-12T06:41:35.850Z,5.60
2017-07-12T06:44:03.409Z,6.10
2017-07-12T06:46:52.835Z,4.93
2017-07-12T06:49:22.078Z,12.13
2017-07-12T06:51:49.814Z,5.90
2017-07-12T06:54:17.765Z,4.90
2017-07-12T06:56:46.322Z,5.33
2017-07-12T06:59:14.003Z,5.10
2017-07-12T07:01:42.522Z,6.00
2017-07-12T07:04:10.066Z,4.57
2017-07-12T07:06:37.582Z,5.50
2017-07-12T07:09:05.105Z,4.83
2017-07-12T07:11:32.665Z,4.80
2017-07-12T07:14:00.223Z,4.90
2017-07-12T07:16:27.801Z,4.33
2017-07-12T07:18:55.440Z,9.23
2017-07-12T07:21:23.014Z,5.27
2017-07-12T07:23:50.525Z,5.17
2017-07-12T07:26:18.900Z,4.93
2017-07-12T07:28:46.504Z,5.10
2017-07-12T07:31:14.058Z,4.70
2017-07-12T07:33:41.626Z,4.40
2017-07-12T07:36:09.193Z,4.63
2017-07-12T07:38:36.721Z,5.30
2017-07-12T07:41:04.298Z,5.03
2017-07-12T07:43:31.852Z,4.87
2017-07-12T07:45:59.369Z,5.50
2017-07-12T07:48:39.019Z,4.97
2017-07-12T07:51:07.301Z,5.63
2017-07-12T07:53:34.890Z,4.93
2017-07-12T07:56:02.450Z,5.03
2017-07-12T07:58:30.106Z,4.70
2017-07-12T08:00:57.671Z,5.57
2017-07-12T08:03:25.202Z,4.40
2017-07-12T08:05:52.780Z,5.17
2017-07-12T08:08:20.546Z,4.17
2017-07-12T08:10:48.113Z,4.90
2017-07-12T08:13:15.662Z,5.63
2017-07-12T08:15:43.226Z,6.23
2017-07-12T08:18:10.786Z,4.70
2017-07-12T08:20:38.301Z,5.40
2017-07-12T08:23:06.615Z,4.33
2017-07-12T08:25:34.200Z,5.53
2017-07-12T08:28:01.730Z,5.07
2017-07-12T08:30:29.271Z,4.30
2017-07-12T08:32:56.958Z,5.13
2017-07-12T08:35:24.514Z,4.23
2017-07-12T08:37:52.281Z,4.20
2017-07-12T08:40:19.910Z,3.60
2017-07-12T08:42:47.774Z,3.37
2017-07-12T08:45:15.595Z,4.00
2017-07-12T08:47:43.331Z,3.70
2017-07-12T08:50:10.997Z,3.30
2017-07-12T08:52:38.548Z,3.67
2017-07-12T08:55:06.230Z,2.80
2017-07-12T08:57:33.873Z,2.83
2017-07-12T09:00:01.433Z,3.33
2017-07-12T09:02:28.990Z,2.93
2017-07-12T09:04:57.414Z,3.40
2017-07-12T09:07:24.957Z,2.97
2017-07-12T09:09:52.474Z,3.43
2017-07-12T09:12:19.990Z,3.60
2017-07-12T09:14:48.319Z,2.77
2017-07-12T09:17:15.877Z,2.90
2017-07-12T09:19:46.083Z,3.57
2017-07-12T09:22:13.697Z,3.37
2017-07-12T09:34:33.469Z,3.90
2017-07-12T09:37:01.811Z,3.17
2017-07-12T09:39:29.441Z,3.43
2017-07-12T09:41:56.965Z,3.40
2017-07-12T09:44:24.550Z,3.37
2017-07-12T09:46:52.114Z,4.27
2017-07-12T09:49:19.632Z,2.77
2017-07-12T09:51:47.949Z,3.37
2017-07-12T09:54:15.557Z,2.93
2017-07-12T09:56:43.137Z,3.10
2017-07-12T09:59:11.547Z,3.60
2017-07-12T10:01:39.112Z,3.20
2017-07-12T10:04:06.665Z,3.00
2017-07-12T10:06:34.226Z,2.47
2017-07-12T10:09:01.882Z,2.60
2017-07-12T10:11:29.409Z,2.80
2017-07-12T10:13:57.717Z,3.27
2017-07-12T10:16:25.276Z,2.80
2017-07-12T10:18:52.842Z,2.53
2017-07-12T10:21:20.395Z,2.90
2017-07-12T10:23:47.957Z,3.07
2017-07-12T10:26:15.466Z,2.57
2017-07-12T10:28:43.750Z,2.47
2017-07-12T10:31:12.070Z,2.93
2017-07-12T10:33:39.726Z,2.50
2017-07-12T10:36:07.262Z,2.50
2017-07-12T10:38:34.849Z,2.73
2017-07-12T10:41:02.401Z,2.80
2017-07-12T10:43:29.965Z,2.80
2017-07-12T10:45:57.612Z,2.53
2017-07-12T10:48:25.130Z,2.83
2017-07-12T10:50:52.649Z,2.37
2017-07-12T10:53:20.197Z,3.43
2017-07-12T10:55:47.714Z,2.60
2017-07-12T10:58:16.133Z,2.03
2017-07-12T11:00:43.649Z,2.50
2017-07-12T11:03:11.963Z,2.43
2017-07-12T11:05:39.486Z,2.90
2017-07-12T11:08:07.805Z,2.43
2017-07-12T11:10:35.370Z,2.60
2017-07-12T11:13:02.922Z,2.93
2017-07-12T11:15:30.478Z,2.47
2017-07-12T11:17:57.989Z,2.73
2017-07-12T11:20:25.605Z,2.60
2017-07-12T11:22:53.258Z,2.73
2017-07-12T11:25:20.817Z,2.60
2017-07-12T11:27:48.377Z,2.53
2017-07-12T11:30:15.898Z,2.70
2017-07-12T11:32:44.213Z,2.87
2017-07-12T11:35:11.765Z,2.10
2017-07-12T11:37:39.434Z,3.17
2017-07-12T11:40:08.508Z,2.63
2017-07-12T11:42:36.904Z,2.97
2017-07-12T11:45:04.466Z,2.60
2017-07-12T11:47:32.009Z,2.47
2017-07-12T11:49:59.537Z,2.60
2017-07-12T11:52:27.822Z,3.00
2017-07-12T11:54:56.235Z,2.73
2017-07-12T11:57:23.856Z,2.50
2017-07-12T11:59:52.298Z,2.63
2017-07-12T12:02:19.935Z,2.50
2017-07-12T12:04:47.665Z,1.90
2017-07-12T12:07:15.994Z,1.77
2017-07-12T12:09:43.535Z,2.23
2017-07-12T12:12:11.403Z,2.63
2017-07-12T12:14:38.964Z,2.50
2017-07-12T12:17:06.485Z,2.90
2017-07-12T12:19:34.772Z,2.43
2017-07-12T12:22:02.293Z,2.33
2017-07-12T12:24:29.913Z,2.07
2017-07-12T12:26:57.478Z,2.20
2017-07-12T12:29:25.033Z,2.47
2017-07-12T12:31:52.545Z,2.70
2017-07-12T12:34:20.840Z,2.27
2017-07-12T12:36:48.377Z,3.17
2017-07-12T12:39:16.710Z,2.70
2017-07-12T12:41:44.261Z,2.70
2017-07-12T12:44:11.822Z,2.87
2017-07-12T12:46:39.341Z,3.00
2017-07-12T12:49:07.751Z,2.63
2017-07-12T12:51:35.369Z,3.10
2017-07-12T12:54:03.700Z,2.70
2017-07-12T12:56:31.253Z,2.90
2017-07-12T12:58:58.780Z,2.80
2017-07-12T13:01:27.188Z,2.47
2017-07-12T13:03:54.714Z,3.00
2017-07-12T13:06:22.994Z,2.40
2017-07-12T13:08:51.273Z,2.73
2017-07-12T13:11:18.794Z,3.10
2017-07-12T13:13:46.333Z,3.13
2017-07-12T13:16:13.878Z,2.57
2017-07-12T13:18:41.389Z,2.30
2017-07-12T13:21:09.676Z,3.00
2017-07-12T13:23:38.019Z,2.90
2017-07-12T13:26:05.533Z,2.50
2017-07-12T13:28:33.102Z,3.43
2017-07-12T13:31:00.661Z,3.53
2017-07-12T13:33:28.222Z,2.87
2017-07-12T13:35:55.739Z,3.00
2017-07-12T13:38:24.061Z,2.93
2017-07-12T13:40:51.616Z,3.00
2017-07-12T13:43:19.129Z,3.40
2017-07-12T13:45:47.448Z,3.23
2017-07-12T13:48:14.962Z,3.03
2017-07-12T13:50:43.273Z,3.17
2017-07-12T13:53:10.847Z,2.73
2017-07-12T13:55:38.365Z,3.40
2017-07-12T13:58:06.669Z,2.97
2017-07-12T14:00:34.241Z,2.83
2017-07-12T14:03:01.796Z,4.00
2017-07-12T14:05:29.360Z,4.43
2017-07-12T14:07:56.914Z,3.87
2017-07-12T14:10:24.473Z,3.40
2017-07-12T14:12:52.033Z,3.50
2017-07-12T14:15:19.578Z,3.83
2017-07-12T14:17:47.157Z,2.83
2017-07-12T14:20:14.814Z,2.73
2017-07-12T14:22:42.370Z,3.03
2017-07-12T14:25:09.932Z,2.80
2017-07-12T14:27:37.477Z,3.00
2017-07-12T14:30:05.054Z,3.30
2017-07-12T14:32:32.606Z,7.03
2017-07-12T14:35:00.162Z,2.50
2017-07-12T14:37:27.679Z,2.60
2017-07-12T14:39:56.125Z,2.97
2017-07-12T14:42:23.669Z,2.60
2017-07-12T14:44:51.213Z,2.70
2017-07-12T14:47:18.777Z,3.10
2017-07-12T14:49:46.342Z,2.93
2017-07-12T14:52:14.113Z,3.07
2017-07-12T14:54:41.660Z,2.67
2017-07-12T14:57:09.217Z,3.20
2017-07-12T14:59:36.730Z,2.93
2017-07-12T15:02:04.248Z,2.77
2017-07-12T15:04:31.894Z,3.20
2017-07-12T15:06:59.458Z,2.40
2017-07-12T15:09:27.941Z,3.40
2017-07-12T15:11:56.799Z,3.07
2017-07-12T15:14:24.309Z,2.97
2017-07-12T15:16:51.941Z,2.40
2017-07-12T15:19:19.515Z,4.43
2017-07-12T15:21:47.101Z,3.13
2017-07-12T15:24:16.445Z,3.20
2017-07-12T15:26:44.025Z,3.10
2017-07-12T15:29:11.587Z,3.20
2017-07-12T15:31:39.187Z,3.20
2017-07-12T15:34:06.702Z,9.37
2017-07-12T15:36:34.258Z,4.13
2017-07-12T15:39:01.821Z,3.40
2017-07-12T15:41:29.479Z,3.27
2017-07-12T15:43:57.061Z,3.27
2017-07-12T15:46:24.597Z,3.47
2017-07-12T15:48:52.157Z,3.30
2017-07-12T15:51:19.670Z,3.00
2017-07-12T15:53:48.198Z,3.60
2017-07-12T15:56:15.713Z,3.33
2017-07-12T15:58:44.021Z,3.33
2017-07-12T16:01:11.588Z,3.13
2017-07-12T16:03:39.150Z,3.47
2017-07-12T16:06:06.814Z,3.50
2017-07-12T16:08:34.367Z,4.23
2017-07-12T16:11:01.882Z,3.40
2017-07-12T16:13:30.162Z,3.50
2017-07-12T16:15:58.476Z,3.13
2017-07-12T16:18:26.021Z,3.70
2017-07-12T16:20:53.607Z,3.00
2017-07-12T16:23:21.149Z,3.80
2017-07-12T16:25:48.713Z,3.20
2017-07-12T16:28:16.230Z,3.33
2017-07-12T16:30:44.548Z,3.80
2017-07-12T16:33:12.110Z,3.97
2017-07-12T16:35:39.670Z,3.60
2017-07-12T16:38:07.227Z,3.73
2017-07-12T16:40:34.785Z,3.23
2017-07-12T16:43:02.451Z,3.53
2017-07-12T16:45:31.445Z,4.50
2017-07-12T16:47:58.997Z,3.80
2017-07-12T16:50:26.549Z,4.20
2017-07-12T16:52:54.123Z,3.97
2017-07-12T16:55:21.774Z,4.77
2017-07-12T16:57:49.293Z,4.50
2017-07-12T17:00:17.610Z,4.00
2017-07-12T17:02:45.271Z,4.97
2017-07-12T17:05:12.830Z,4.90
2017-07-12T17:07:40.490Z,4.17
2017-07-12T17:10:08.057Z,4.83
2017-07-12T17:12:35.609Z,7.23
2017-07-12T17:15:03.165Z,8.70
2017-07-12T17:17:30.698Z,5.20
2017-07-12T17:19:58.274Z,6.33
2017-07-12T17:22:25.849Z,4.80
2017-07-12T17:24:53.421Z,9.33
2017-07-12T17:27:21.166Z,5.50
2017-07-12T17:29:48.679Z,5.67
2017-07-12T17:32:16.998Z,6.17
2017-07-12T17:34:44.566Z,7.20
2017-07-12T17:37:12.123Z,6.33
2017-07-12T17:39:39.674Z,7.60
2017-07-12T17:42:07.338Z,11.40
2017-07-12T17:44:34.882Z,7.60
2017-07-12T17:47:02.460Z,7.10
2017-07-12T17:49:30.023Z,7.10
2017-07-12T17:51:57.545Z,8.90
2017-07-12T17:54:25.067Z,9.60
2017-07-12T17:56:52.728Z,11.50
2017-07-12T17:59:20.355Z,13.30
2017-07-12T18:01:47.911Z,15.37
2017-07-12T18:04:15.505Z,16.83
2017-07-12T18:06:43.018Z,16.67
2017-07-12T18:09:10.603Z,15.87
2017-07-12T18:11:38.249Z,14.57
2017-07-12T18:14:06.117Z,13.53
2017-07-12T18:16:33.659Z,13.63
2017-07-12T18:19:01.453Z,12.13
2017-07-12T18:21:28.998Z,12.90
2017-07-12T18:23:56.697Z,12.37
2017-07-12T18:26:24.325Z,13.40
2017-07-12T18:28:51.882Z,12.70
2017-07-12T18:31:19.406Z,11.13
2017-07-12T18:33:47.713Z,10.83
2017-07-12T18:36:15.272Z,10.70
2017-07-12T18:38:42.817Z,11.30
2017-07-12T18:41:10.392Z,10.97
2017-07-12T18:43:37.951Z,64.03
2017-07-12T18:46:05.473Z,24.10
2017-07-12T18:48:33.784Z,13.07
2017-07-12T18:51:01.443Z,12.70
2017-07-12T18:53:29.002Z,9.97
2017-07-12T18:55:56.561Z,10.73
2017-07-12T18:58:24.124Z,10.60
2017-07-12T19:00:51.683Z,10.17
2017-07-12T19:03:19.277Z,10.80
2017-07-12T19:05:46.905Z,11.20
2017-07-12T19:08:14.434Z,13.33
2017-07-12T19:10:42.032Z,13.20
2017-07-12T19:13:09.555Z,12.60
2017-07-12T19:15:37.149Z,12.17
2017-07-12T19:18:04.706Z,11.87
2017-07-12T19:20:32.230Z,12.47
2017-07-12T19:22:59.825Z,12.23
2017-07-12T19:25:27.377Z,12.00
2017-07-12T19:27:54.993Z,13.63
2017-07-12T19:30:23.314Z,13.40
2017-07-12T19:32:50.866Z,19.57
2017-07-12T19:35:18.426Z,14.37
2017-07-12T19:37:45.993Z,14.70
2017-07-12T19:40:13.644Z,14.07
2017-07-12T19:42:41.223Z,14.10
2017-07-12T19:45:08.776Z,13.77
2017-07-12T19:47:36.321Z,14.80
2017-07-12T19:50:03.838Z,16.10
2017-07-12T19:52:32.265Z,12.97
2017-07-12T19:54:59.821Z,13.40
2017-07-12T19:57:27.377Z,13.63
2017-07-12T19:59:54.898Z,15.00
2017-07-12T20:02:23.185Z,13.20
2017-07-12T20:04:50.769Z,15.73
2017-07-12T20:07:18.307Z,17.87
2017-07-12T20:09:45.890Z,14.90
2017-07-12T20:12:15.800Z,13.70
2017-07-12T20:14:43.626Z,15.10
2017-07-12T20:17:12.049Z,13.13
2017-07-12T20:19:39.576Z,14.50
2017-07-12T20:22:07.161Z,15.40
2017-07-12T20:24:34.730Z,14.03
2017-07-12T20:27:02.288Z,15.57
2017-07-12T20:29:29.883Z,15.97
2017-07-12T20:31:58.193Z,14.07
2017-07-12T20:34:25.713Z,13.60
2017-07-12T20:36:53.374Z,12.43
2017-07-12T20:39:20.997Z,12.23
2017-07-12T20:41:50.501Z,12.07
2017-07-12T20:44:18.185Z,12.03
2017-07-12T20:46:45.813Z,12.07
2017-07-12T20:49:13.384Z,11.47
2017-07-12T20:51:41.042Z,10.50
2017-07-12T20:54:08.704Z,9.13
2017-07-12T20:56:36.261Z,10.30
2017-07-12T20:59:03.821Z,11.17
2017-07-12T21:01:31.382Z,10.60
2017-07-12T21:03:58.936Z,10.73
2017-07-12T21:06:26.598Z,10.63
2017-07-12T21:08:54.185Z,10.10
2017-07-12T21:11:21.877Z,8.70
2017-07-12T21:13:50.616Z,8.33
2017-07-12T21:16:18.727Z,8.27
2017-07-12T21:18:46.589Z,7.50
2017-07-12T21:21:14.276Z,7.47
2017-07-12T21:23:41.968Z,7.47
2017-07-12T21:26:09.488Z,8.17
2017-07-12T21:28:37.801Z,7.80
2017-07-12T21:31:05.346Z,6.80
2017-07-12T21:33:32.923Z,7.60
2017-07-12T21:36:00.449Z,6.97
2017-07-12T21:38:28.043Z,5.90
2017-07-12T21:40:55.589Z,6.40
2017-07-12T21:43:23.153Z,6.50
2017-07-12T21:45:50.670Z,6.60
2017-07-12T21:48:18.958Z,5.03
2017-07-12T21:50:47.373Z,6.33
2017-07-12T21:53:32.830Z,6.40
2017-07-12T21:56:18.085Z,6.10
2017-07-12T21:59:04.161Z,5.67
2017-07-12T22:01:50.174Z,4.77
2017-07-12T22:04:35.614Z,5.00
2017-07-12T22:07:21.002Z,5.37
2017-07-12T22:10:06.296Z,4.70
2017-07-12T22:12:52.308Z,4.20
2017-07-12T22:15:37.450Z,4.50
2017-07-12T22:18:23.646Z,4.07
2017-07-12T22:21:09.608Z,4.00
2017-07-12T22:23:54.832Z,3.53
2017-07-12T22:26:40.073Z,3.63
2017-07-12T22:29:25.480Z,4.00
2017-07-12T22:32:10.925Z,3.50
2017-07-12T22:34:56.115Z,3.50
2017-07-12T22:37:30.273Z,3.10
2017-07-12T22:40:03.745Z,3.80
2017-07-12T22:42:37.004Z,3.30
2017-07-12T22:45:04.532Z,3.87
2017-07-12T22:47:32.070Z,3.30
2017-07-12T22:49:59.636Z,3.30
2017-07-12T22:52:27.191Z,3.10
2017-07-12T22:54:54.751Z,3.30
2017-07-12T22:57:22.307Z,3.00
2017-07-12T22:59:49.829Z,3.23
2017-07-12T23:02:18.244Z,3.20
2017-07-12T23:04:45.769Z,2.83
2017-07-12T23:07:14.076Z,4.53
2017-07-12T23:09:41.645Z,3.23
2017-07-12T23:12:09.167Z,3.40
2017-07-12T23:14:36.772Z,3.20
2017-07-12T23:17:04.314Z,3.10
2017-07-12T23:19:31.873Z,2.83
2017-07-12T23:21:59.433Z,3.20
2017-07-12T23:24:26.994Z,3.00
2017-07-12T23:26:54.670Z,3.20
2017-07-12T23:29:22.185Z,3.37
2017-07-12T23:31:49.776Z,2.90
2017-07-12T23:34:17.327Z,3.33
2017-07-12T23:36:44.990Z,3.90
2017-07-12T23:39:12.550Z,2.83
2017-07-12T23:41:40.106Z,3.10
2017-07-12T23:44:07.669Z,2.67
2017-07-12T23:46:35.185Z,3.07
2017-07-12T23:49:03.532Z,2.80
2017-07-12T23:51:31.157Z,2.53
2017-07-12T23:53:58.673Z,2.53
2017-07-12T23:56:26.953Z,1.77
2017-07-12T23:58:55.273Z,1.60
